createdAt,value
2023-03-12T00:00:20.192Z,100063.94
2023-03-12T00:05:17.129Z,100075.63
2023-03-12T00:10:15.217Z,100085.78
2023-03-12T00:15:12.950Z,100081.59
2023-03-12T00:20:11.587Z,100131.69
2023-03-12T00:25:12.283Z,100137.19
2023-03-12T00:30:11.361Z,100088.38
2023-03-12T00:35:09.295Z,100111.75
2023-03-12T00:40:08.601Z,100084.16
2023-03-12T00:45:06.752Z,100132.38
2023-03-12T00:50:04.347Z,100132.63
2023-03-12T00:55:01.836Z,100051.84
2023-03-12T00:59:58.630Z,100110.22
2023-03-12T01:04:55.734Z,100109.53
2023-03-12T01:09:52.555Z,100047.09
2023-03-12T01:14:49.943Z,100110.03
2023-03-12T01:19:46.764Z,100111.22
2023-03-12T01:24:43.576Z,100066.28
2023-03-12T01:29:40.506Z,100094.19
2023-03-12T01:34:38.101Z,100079.81
2023-03-12T01:39:35.077Z,100139.56
2023-03-12T01:44:49.615Z,100117.09
2023-03-12T01:49:49.349Z,100103.22
2023-03-12T01:54:50.896Z,100128.50
2023-03-12T01:59:52.606Z,100164.94
2023-03-12T02:04:52.652Z,100051.06
2023-03-12T02:09:50.673Z,100159.13
2023-03-12T02:14:47.596Z,100196.19
2023-03-12T02:19:56.850Z,100194.88
2023-03-12T02:25:03.154Z,100173.63
2023-03-12T02:30:02.541Z,100159.81
2023-03-12T02:35:00.260Z,100159.34
2023-03-12T02:40:03.258Z,100214.66
2023-03-12T02:45:02.298Z,100218.28
2023-03-12T02:49:59.182Z,100171.09
2023-03-12T02:54:56.140Z,100159.84
2023-03-12T02:59:52.954Z,100173.84
2023-03-12T03:04:51.386Z,100227.03
2023-03-12T03:09:48.283Z,100206.28
2023-03-12T03:14:45.144Z,100274.56
2023-03-12T03:19:43.124Z,100224.16
2023-03-12T03:24:41.418Z,100273.50
2023-03-12T03:29:38.164Z,100261.44
2023-03-12T03:34:35.008Z,100294.16
2023-03-12T03:39:32.302Z,100265.63
2023-03-12T03:44:30.440Z,100188.56
2023-03-12T03:49:27.446Z,100270.31
2023-03-12T03:54:24.619Z,100275.78
2023-03-12T03:59:34.978Z,100347.38
2023-03-12T04:04:33.074Z,100282.47
2023-03-12T04:09:30.285Z,100321.75
2023-03-12T04:14:27.269Z,100368.69
2023-03-12T04:19:24.214Z,100300.91
2023-03-12T04:24:21.785Z,100330.13
2023-03-12T04:29:19.712Z,100324.34
2023-03-12T04:34:16.801Z,100393.56
2023-03-12T04:39:18.598Z,100349.91
2023-03-12T04:44:20.187Z,100338.97
2023-03-12T04:49:17.253Z,100425.25
2023-03-12T04:54:14.395Z,100388.63
2023-03-12T04:59:13.179Z,100435.72
2023-03-12T05:04:12.103Z,100428.13
2023-03-12T05:09:09.061Z,100391.44
2023-03-12T05:14:06.309Z,100399.25
2023-03-12T05:19:03.672Z,100379.72
2023-03-12T05:24:03.105Z,100428.28
2023-03-12T05:29:00.964Z,100491.19
2023-03-12T05:33:58.633Z,100489.84
2023-03-12T05:38:56.648Z,100484.22
2023-03-12T05:43:57.745Z,100521.59
2023-03-12T05:48:55.133Z,100419.81
2023-03-12T05:53:54.736Z,100551.47
2023-03-12T05:58:51.952Z,100426.91
2023-03-12T06:03:50.854Z,100524.88
2023-03-12T06:08:48.927Z,100477.69
2023-03-12T06:13:45.986Z,100515.19
2023-03-12T06:18:42.984Z,100576.13
2023-03-12T06:23:41.661Z,100623.28
2023-03-12T06:28:41.793Z,100628.53
2023-03-12T06:33:39.066Z,100620.28
2023-03-12T06:38:36.504Z,100596.69
2023-03-12T06:43:36.174Z,100638.06
2023-03-12T06:48:36.176Z,100661.38
2023-03-12T06:53:33.133Z,100671.69
2023-03-12T06:58:30.003Z,100671.72
2023-03-12T07:03:30.742Z,100573.41
2023-03-12T07:08:30.509Z,100614.00
2023-03-12T07:13:27.498Z,100658.91
2023-03-12T07:18:26.436Z,100653.78
2023-03-12T07:23:24.369Z,100566.47
2023-03-12T07:28:22.425Z,100648.88
2023-03-12T07:33:21.714Z,100691.41
2023-03-12T07:38:19.721Z,100657.47
2023-03-12T07:43:20.287Z,100667.53
2023-03-12T07:48:19.661Z,100662.50
2023-03-12T07:53:18.572Z,100724.56
2023-03-12T07:58:18.072Z,100695.72
2023-03-12T08:03:17.012Z,100661.91
2023-03-12T08:08:17.001Z,100721.69
2023-03-12T08:13:14.210Z,100714.44
2023-03-12T08:18:11.508Z,100737.50
2023-03-12T08:23:18.792Z,100792.09
2023-03-12T08:28:41.841Z,100792.69
2023-03-12T08:33:43.113Z,100804.78
2023-03-12T08:38:50.354Z,100778.16
2023-03-12T08:44:10.661Z,100783.63
2023-03-12T08:49:11.541Z,100818.94
2023-03-12T08:54:11.222Z,100786.81
2023-03-12T08:59:24.711Z,100821.56
2023-03-12T09:04:21.939Z,100815.72
2023-03-12T09:09:24.465Z,100758.00
2023-03-12T09:15:01.012Z,100737.09
2023-03-12T09:19:39.722Z,100781.09
2023-03-12T09:24:37.928Z,100765.78
2023-03-12T09:29:37.979Z,100765.75
2023-03-12T09:34:42.536Z,100839.09
2023-03-12T09:39:41.138Z,100829.72
2023-03-12T09:44:42.451Z,100851.31
2023-03-12T09:49:44.492Z,100824.97
2023-03-12T09:54:47.727Z,100831.53
2023-03-12T09:59:44.773Z,100878.28
2023-03-12T10:04:58.970Z,100877.09
2023-03-12T10:10:24.778Z,100866.34
2023-03-12T10:15:40.314Z,100874.16
2023-03-12T10:20:58.304Z,100884.38
2023-03-12T10:26:00.036Z,100876.53
2023-03-12T10:31:01.827Z,100865.38
2023-03-12T10:35:59.301Z,100889.78
2023-03-12T10:40:57.091Z,100837.03
2023-03-12T10:46:02.990Z,100854.25
2023-03-12T10:51:05.550Z,100862.22
2023-03-12T10:56:06.700Z,100788.53
2023-03-12T11:01:05.802Z,100847.84
2023-03-12T11:06:05.226Z,100850.56
2023-03-12T11:11:05.285Z,100838.69
2023-03-12T11:16:24.364Z,100836.06
2023-03-12T11:21:21.411Z,100835.81
2023-03-12T11:26:22.384Z,100869.78
2023-03-12T11:31:24.366Z,100812.41
2023-03-12T11:36:43.266Z,100794.56
2023-03-12T11:41:54.541Z,100825.47
2023-03-12T11:47:03.787Z,100876.31
2023-03-12T11:52:05.062Z,100742.75
2023-03-12T11:57:06.929Z,100814.41
2023-03-12T12:02:19.349Z,100875.19
2023-03-12T12:07:25.545Z,100858.53
2023-03-12T12:12:42.218Z,100800.63
2023-03-12T12:17:54.490Z,100808.03
2023-03-12T12:23:18.818Z,100821.59
2023-03-12T12:28:33.632Z,100839.09
2023-03-12T12:33:45.952Z,100895.28
2023-03-12T12:38:47.051Z,100831.31
2023-03-12T12:43:49.001Z,100884.91
2023-03-12T12:48:50.624Z,100850.66
2023-03-12T12:53:56.186Z,100845.84
2023-03-12T12:59:10.283Z,100888.09
2023-03-12T13:04:13.814Z,100864.72
2023-03-12T13:09:15.888Z,100873.56
2023-03-12T13:14:30.563Z,100903.72
2023-03-12T13:19:27.884Z,100932.03
2023-03-12T13:24:30.068Z,100858.84
2023-03-12T13:29:41.018Z,100941.97
2023-03-12T13:34:47.082Z,100947.72
2023-03-12T13:39:45.481Z,100928.38
2023-03-12T13:44:48.094Z,100949.75
2023-03-12T13:49:52.125Z,100934.78
2023-03-12T13:55:00.514Z,100927.72
2023-03-12T14:00:05.147Z,100963.50
2023-03-12T14:05:08.530Z,100877.44
2023-03-12T14:10:19.782Z,100962.69
2023-03-12T14:15:29.383Z,100967.25
2023-03-12T14:20:28.840Z,100878.34
2023-03-12T14:25:36.790Z,100927.63
2023-03-12T14:30:44.709Z,100970.09
2023-03-12T14:35:47.475Z,100970.66
2023-03-12T14:40:50.639Z,100927.53
2023-03-12T14:45:54.097Z,100928.50
2023-03-12T14:50:51.291Z,100986.38
2023-03-12T14:56:01.045Z,101003.97
2023-03-12T15:01:00.581Z,100962.50
2023-03-12T15:05:58.433Z,101004.72
2023-03-12T15:10:59.591Z,100989.03
2023-03-12T15:15:57.075Z,100972.25
2023-03-12T15:20:57.120Z,101029.81
2023-03-12T15:26:15.411Z,100956.91
2023-03-12T15:31:15.400Z,101021.88
2023-03-12T15:36:27.961Z,101049.38
2023-03-12T15:41:28.110Z,101050.81
2023-03-12T15:46:26.231Z,101019.25
2023-03-12T15:51:35.507Z,101038.25
2023-03-12T15:56:35.349Z,101017.91
2023-03-12T16:01:45.125Z,101028.44
2023-03-12T16:06:45.380Z,101067.94
2023-03-12T16:11:42.592Z,101095.47
2023-03-12T16:16:41.925Z,101088.19
2023-03-12T16:21:38.790Z,101014.25
2023-03-12T16:26:42.465Z,101092.28
2023-03-12T16:31:39.385Z,101054.13
2023-03-12T16:36:36.241Z,101112.47
2023-03-12T16:41:33.305Z,101065.09
2023-03-12T16:46:31.967Z,101108.44
2023-03-12T16:51:29.047Z,101108.28
2023-03-12T16:56:27.700Z,101121.88
2023-03-12T17:01:28.641Z,101183.81
2023-03-12T17:06:26.984Z,101160.00
2023-03-12T17:11:26.807Z,101186.53
2023-03-12T17:16:24.515Z,101233.06
2023-03-12T17:21:22.487Z,101213.63
2023-03-12T17:26:20.052Z,101149.22
2023-03-12T17:31:17.099Z,101202.25
2023-03-12T17:36:14.078Z,101244.53
2023-03-12T17:41:25.470Z,101215.63
2023-03-12T17:46:24.065Z,101233.81
2023-03-12T17:51:21.105Z,101294.13
2023-03-12T17:56:18.815Z,101311.31
2023-03-12T18:01:17.025Z,101303.25
2023-03-12T18:06:14.470Z,101315.88
2023-03-12T18:11:11.310Z,101319.78
2023-03-12T18:16:09.552Z,101264.09
2023-03-12T18:21:06.545Z,101198.66
2023-03-12T18:26:04.887Z,101303.50
2023-03-12T18:31:02.014Z,101323.59
2023-03-12T18:35:59.084Z,101240.28
2023-03-12T18:41:04.327Z,101329.97
2023-03-12T18:46:02.497Z,101312.44
2023-03-12T18:50:59.634Z,101340.28
2023-03-12T18:55:58.276Z,101354.28
2023-03-12T19:00:56.852Z,101342.81
2023-03-12T19:06:02.452Z,101338.13
2023-03-12T19:10:59.429Z,101316.66
2023-03-12T19:16:01.070Z,101367.75
2023-03-12T19:20:58.002Z,101396.22
2023-03-12T19:25:55.668Z,101405.06
2023-03-12T19:30:59.388Z,101418.47
2023-03-12T19:35:57.019Z,101317.19
2023-03-12T19:40:57.914Z,101432.38
2023-03-12T19:45:55.541Z,101410.63
2023-03-12T19:50:53.224Z,101453.94
2023-03-12T19:55:50.602Z,101453.22
2023-03-12T20:00:49.465Z,101415.00
2023-03-12T20:05:47.099Z,101439.53
2023-03-12T20:10:44.229Z,101480.84
2023-03-12T20:15:44.643Z,101432.84
2023-03-12T20:20:42.727Z,101424.59
2023-03-12T20:25:41.973Z,101494.38
2023-03-12T20:30:40.067Z,101504.06
2023-03-12T20:35:37.261Z,101485.56
2023-03-12T20:40:35.061Z,101471.91
2023-03-12T20:45:32.713Z,101517.59
2023-03-12T20:50:29.669Z,101512.25
2023-03-12T20:55:26.538Z,101416.41
2023-03-12T21:00:24.308Z,101521.22
2023-03-12T21:05:23.913Z,101544.53
2023-03-12T21:10:22.037Z,101507.63
2023-03-12T21:15:19.281Z,101475.94
2023-03-12T21:20:18.118Z,101513.69
2023-03-12T21:25:15.192Z,101438.47
2023-03-12T21:30:12.986Z,101432.72
2023-03-12T21:35:10.905Z,101523.06
2023-03-12T21:40:10.504Z,101516.19
2023-03-12T21:45:09.435Z,101490.53
2023-03-12T21:50:08.897Z,101477.91
2023-03-12T21:55:07.937Z,101554.22
2023-03-12T22:00:12.236Z,101497.84
2023-03-12T22:05:10.122Z,101570.97
2023-03-12T22:10:11.121Z,101534.19
2023-03-12T22:15:10.798Z,101578.94
2023-03-12T22:20:09.469Z,101516.25
2023-03-12T22:25:07.018Z,101584.16
2023-03-12T22:30:04.979Z,101589.41
2023-03-12T22:35:02.698Z,101592.03
2023-03-12T22:40:04.469Z,101598.13
2023-03-12T22:45:01.496Z,101555.19
2023-03-12T22:49:58.489Z,101567.34
2023-03-12T22:54:56.177Z,101530.50
2023-03-12T22:59:53.256Z,101565.66
2023-03-12T23:04:50.273Z,101613.06
2023-03-12T23:09:48.491Z,101581.47
2023-03-12T23:14:46.074Z,101626.28
2023-03-12T23:19:42.992Z,101581.91
2023-03-12T23:24:39.984Z,101584.66
2023-03-12T23:29:37.995Z,101552.75
2023-03-12T23:34:35.653Z,101618.31
2023-03-12T23:39:35.338Z,101619.34
2023-03-12T23:44:38.313Z,101643.56
2023-03-12T23:49:36.079Z,101645.47
2023-03-12T23:54:33.238Z,101581.13
2023-03-12T23:59:30.494Z,101528.03
